createdAt,value
2024-02-08T00:02:09.122Z,61.03
2024-02-08T00:04:36.533Z,61.15
2024-02-08T00:07:03.952Z,61.27
2024-02-08T00:09:31.309Z,61.30
2024-02-08T00:11:58.605Z,61.07
2024-02-08T00:14:39.819Z,61.11
2024-02-08T00:17:07.497Z,60.89
2024-02-08T00:19:34.991Z,61.59
2024-02-08T00:22:02.346Z,61.09
2024-02-08T00:24:29.660Z,61.10
2024-02-08T00:26:56.966Z,60.68
2024-02-08T00:29:24.300Z,60.34
2024-02-08T00:31:51.647Z,60.91
2024-02-08T00:34:19.000Z,59.86
2024-02-08T00:36:46.346Z,60.11
2024-02-08T00:39:13.668Z,60.51
2024-02-08T00:41:40.996Z,60.70
2024-02-08T00:44:08.364Z,61.28
2024-02-08T00:46:35.743Z,61.28
2024-02-08T00:49:03.118Z,60.66
2024-02-08T00:51:30.418Z,60.07
2024-02-08T00:53:57.735Z,59.66
2024-02-08T00:56:25.069Z,59.93
2024-02-08T00:58:54.374Z,60.01
2024-02-08T01:01:21.719Z,60.52
2024-02-08T01:03:49.194Z,61.00
2024-02-08T01:06:18.612Z,60.79
2024-02-08T01:08:45.987Z,61.61
2024-02-08T01:11:13.521Z,62.01
2024-02-08T01:13:40.954Z,61.83
2024-02-08T01:16:08.274Z,62.29
2024-02-08T01:18:35.655Z,62.37
2024-02-08T01:21:03.019Z,62.23
2024-02-08T01:23:30.333Z,62.20
2024-02-08T01:25:57.666Z,61.96
2024-02-08T01:28:24.991Z,61.89
2024-02-08T01:30:52.376Z,62.19
2024-02-08T01:33:19.740Z,61.96
2024-02-08T01:35:47.043Z,61.07
2024-02-08T01:41:27.101Z,61.23
2024-02-08T01:43:54.412Z,61.48
2024-02-08T01:46:21.762Z,60.92
2024-02-08T01:48:51.123Z,59.71
2024-02-08T01:51:18.463Z,59.98
2024-02-08T01:53:45.794Z,60.43
2024-02-08T01:56:13.252Z,60.15
2024-02-08T01:58:40.662Z,60.12
2024-02-08T02:01:07.999Z,61.14
2024-02-08T02:03:35.433Z,61.86
2024-02-08T02:06:02.916Z,60.34
2024-02-08T02:08:30.259Z,61.08
2024-02-08T02:10:57.662Z,61.42
2024-02-08T02:13:25.034Z,61.22
2024-02-08T02:15:52.361Z,61.94
2024-02-08T02:18:19.825Z,61.88
2024-02-08T02:20:47.240Z,61.90
2024-02-08T02:23:14.612Z,61.65
2024-02-08T02:25:41.945Z,61.23
2024-02-08T02:28:09.307Z,60.77
2024-02-08T02:30:36.734Z,61.24
2024-02-08T02:33:04.152Z,61.91
2024-02-08T02:35:31.508Z,61.73
2024-02-08T02:37:58.837Z,61.98
2024-02-08T02:40:26.220Z,61.63
2024-02-08T02:42:53.558Z,61.48
2024-02-08T02:45:20.866Z,61.11
2024-02-08T02:47:48.246Z,60.69
2024-02-08T02:50:15.726Z,60.54
2024-02-08T02:52:43.151Z,60.31
2024-02-08T02:55:10.474Z,60.08
2024-02-08T02:57:37.790Z,59.67
2024-02-08T03:00:05.114Z,59.71
2024-02-08T03:02:32.468Z,60.18
2024-02-08T03:04:59.836Z,60.06
2024-02-08T03:07:27.251Z,60.95
2024-02-08T03:09:54.621Z,60.69
2024-02-08T03:12:21.945Z,60.14
2024-02-08T03:14:49.245Z,59.60
2024-02-08T03:23:43.163Z,60.84
2024-02-08T03:26:10.496Z,61.71
2024-02-08T03:28:37.875Z,61.60
2024-02-08T03:31:05.214Z,62.04
2024-02-08T03:33:32.591Z,62.43
2024-02-08T03:35:59.916Z,61.99
2024-02-08T03:38:27.233Z,62.53
2024-02-08T03:40:54.604Z,62.38
2024-02-08T03:43:21.921Z,62.64
2024-02-08T03:45:49.246Z,62.59
2024-02-08T03:48:16.692Z,62.61
2024-02-08T03:50:44.219Z,62.44
2024-02-08T03:53:11.702Z,62.95
2024-02-08T03:55:39.135Z,62.50
2024-02-08T03:58:06.482Z,62.49
2024-02-08T04:00:33.813Z,62.27
2024-02-08T04:03:02.831Z,62.19
2024-02-08T04:05:30.267Z,61.96
2024-02-08T04:07:57.620Z,62.40
2024-02-08T04:10:24.962Z,62.14
2024-02-08T04:12:52.314Z,61.60
2024-02-08T04:15:28.845Z,61.49
2024-02-08T04:17:56.240Z,61.50
2024-02-08T04:20:23.588Z,61.32
2024-02-08T04:22:50.981Z,61.38
2024-02-08T04:25:18.317Z,62.01
2024-02-08T04:27:45.640Z,61.79
2024-02-08T04:30:12.967Z,62.11
2024-02-08T04:32:40.440Z,61.80
2024-02-08T04:35:07.998Z,62.56
2024-02-08T04:37:35.443Z,62.29
2024-02-08T04:40:02.783Z,61.96
2024-02-08T04:42:30.103Z,62.43
2024-02-08T04:44:57.416Z,62.18
2024-02-08T04:47:26.775Z,61.58
2024-02-08T04:49:54.127Z,61.62
2024-02-08T04:52:21.534Z,61.56
2024-02-08T04:54:48.873Z,61.93
2024-02-08T04:57:16.196Z,61.14
2024-02-08T04:59:43.632Z,61.36
2024-02-08T05:02:11.079Z,61.73
2024-02-08T05:04:38.637Z,61.13
2024-02-08T05:07:06.187Z,61.25
2024-02-08T05:09:33.695Z,61.17
2024-02-08T05:12:01.008Z,60.67
2024-02-08T05:14:28.448Z,60.79
2024-02-08T05:16:56.461Z,60.54
2024-02-08T05:19:23.995Z,60.67
2024-02-08T05:21:51.376Z,60.54
2024-02-08T05:24:18.708Z,61.20
2024-02-08T05:26:46.048Z,61.41
2024-02-08T05:29:13.369Z,61.67
2024-02-08T05:31:40.909Z,61.28
2024-02-08T05:34:16.398Z,61.60
2024-02-08T05:36:45.417Z,60.95
2024-02-08T05:39:12.823Z,60.83
2024-02-08T05:41:40.123Z,61.18
2024-02-08T05:44:07.453Z,61.18
2024-02-08T05:46:34.855Z,61.12
2024-02-08T05:49:02.273Z,60.78
2024-02-08T05:51:29.609Z,60.77
2024-02-08T05:53:56.938Z,61.08
2024-02-08T05:56:24.228Z,60.71
2024-02-08T05:58:51.541Z,60.83
2024-02-08T06:01:18.977Z,60.74
2024-02-08T06:03:46.427Z,61.18
2024-02-08T06:06:13.896Z,61.31
2024-02-08T06:08:41.508Z,61.61
2024-02-08T06:11:08.858Z,61.74
2024-02-08T06:13:36.306Z,62.01
2024-02-08T06:16:03.693Z,60.78
2024-02-08T06:18:31.121Z,60.68
2024-02-08T06:20:58.472Z,61.05
2024-02-08T06:23:25.817Z,61.36
2024-02-08T06:25:53.152Z,61.25
2024-02-08T06:28:20.629Z,61.83
2024-02-08T06:30:48.224Z,62.78
2024-02-08T06:33:15.720Z,62.62
2024-02-08T06:35:43.065Z,62.48
2024-02-08T06:38:12.358Z,62.47
2024-02-08T06:40:39.762Z,61.78
2024-02-08T06:43:07.143Z,62.38
2024-02-08T06:45:34.523Z,61.88
2024-02-08T06:48:02.022Z,61.93
2024-02-08T06:50:29.451Z,61.93
2024-02-08T06:52:56.759Z,62.36
2024-02-08T06:55:24.199Z,62.11
2024-02-08T06:57:51.623Z,62.33
2024-02-08T07:00:18.965Z,61.65
2024-02-08T07:02:46.311Z,61.88
2024-02-08T07:05:13.886Z,62.74
2024-02-08T07:07:43.411Z,62.45
2024-02-08T07:10:10.812Z,62.58
2024-02-08T07:12:38.211Z,62.20
2024-02-08T07:15:05.516Z,62.35
2024-02-08T07:17:32.870Z,62.60
2024-02-08T07:20:00.409Z,62.45
2024-02-08T07:22:27.960Z,61.90
2024-02-08T07:24:55.348Z,62.42
2024-02-08T07:27:22.658Z,62.44
2024-02-08T07:29:49.988Z,62.35
2024-02-08T07:32:17.278Z,62.58
2024-02-08T07:34:44.802Z,61.78
2024-02-08T07:37:12.357Z,62.68
2024-02-08T07:39:39.696Z,62.43
2024-02-08T07:42:07.014Z,61.60
2024-02-08T07:44:37.299Z,62.26
2024-02-08T07:47:05.865Z,62.58
2024-02-08T07:49:33.300Z,63.05
2024-02-08T07:52:00.811Z,63.63
2024-02-08T07:54:28.137Z,63.66
2024-02-08T07:56:57.498Z,63.57
2024-02-08T07:59:24.859Z,62.35
2024-02-08T08:01:52.570Z,62.73
2024-02-08T08:04:20.124Z,62.79
2024-02-08T08:06:47.723Z,63.22
2024-02-08T08:09:15.517Z,63.82
2024-02-08T08:11:42.913Z,63.77
2024-02-08T08:14:10.272Z,63.66
2024-02-08T08:16:37.681Z,63.24
2024-02-08T08:19:05.165Z,63.28
2024-02-08T08:21:32.516Z,64.47
2024-02-08T08:23:59.841Z,65.40
2024-02-08T08:26:27.187Z,65.40
2024-02-08T08:28:54.506Z,65.72
2024-02-08T08:31:21.890Z,64.74
2024-02-08T08:33:49.282Z,64.80
2024-02-08T08:36:16.669Z,64.17
2024-02-08T08:38:43.989Z,64.01
2024-02-08T08:41:13.484Z,63.95
2024-02-08T08:43:41.013Z,63.82
2024-02-08T08:46:08.445Z,64.41
2024-02-08T08:48:35.923Z,63.94
2024-02-08T08:51:03.291Z,63.51
2024-02-08T08:53:30.619Z,64.34
2024-02-08T08:55:58.011Z,64.96
2024-02-08T08:58:25.395Z,64.17
2024-02-08T09:00:52.767Z,63.99
2024-02-08T09:03:20.124Z,64.68
2024-02-08T09:05:47.443Z,65.24
2024-02-08T09:08:14.861Z,63.94
2024-02-08T09:10:42.881Z,63.62
2024-02-08T09:13:10.575Z,62.74
2024-02-08T09:15:37.957Z,62.35
2024-02-08T09:18:05.314Z,62.88
2024-02-08T09:20:32.721Z,63.27
2024-02-08T09:23:00.074Z,61.92
2024-02-08T09:25:35.671Z,62.91
2024-02-08T09:28:07.484Z,62.35
2024-02-08T09:30:36.847Z,62.79
2024-02-08T09:33:04.227Z,62.68
2024-02-08T09:35:31.822Z,63.43
2024-02-08T09:37:59.287Z,62.99
2024-02-08T09:40:26.744Z,63.27
2024-02-08T09:42:56.455Z,61.99
2024-02-08T09:45:23.905Z,62.31
2024-02-08T09:47:51.293Z,62.15
2024-02-08T09:50:18.643Z,62.59
2024-02-08T09:52:50.141Z,62.65
2024-02-08T09:55:19.510Z,62.05
2024-02-08T09:57:47.305Z,62.03
2024-02-08T10:00:14.664Z,62.40
2024-02-08T10:02:43.989Z,62.24
2024-02-08T10:05:11.406Z,61.59
2024-02-08T10:07:38.977Z,61.61
2024-02-08T10:10:06.369Z,60.94
2024-02-08T10:12:33.718Z,60.56
2024-02-08T10:15:01.830Z,59.83
2024-02-08T10:17:29.620Z,59.89
2024-02-08T10:19:57.084Z,60.40
2024-02-08T10:22:24.481Z,59.87
2024-02-08T10:24:51.841Z,60.15
2024-02-08T10:27:19.174Z,60.27
2024-02-08T10:29:46.501Z,60.24
2024-02-08T10:32:13.820Z,59.85
2024-02-08T10:34:42.244Z,60.10
2024-02-08T10:37:10.044Z,59.99
2024-02-08T10:39:37.382Z,60.06
2024-02-08T10:42:04.699Z,59.67
2024-02-08T10:44:32.029Z,59.44
2024-02-08T10:47:11.576Z,59.80
2024-02-08T10:49:39.082Z,59.00
2024-02-08T10:52:06.619Z,59.62
2024-02-08T10:54:36.763Z,58.76
2024-02-08T10:57:05.466Z,57.91
2024-02-08T10:59:32.794Z,58.79
2024-02-08T11:02:00.292Z,58.00
2024-02-08T11:04:27.732Z,58.04
2024-02-08T11:06:55.238Z,58.27
2024-02-08T11:09:22.606Z,56.82
2024-02-08T11:11:49.929Z,57.59
2024-02-08T11:14:17.276Z,58.08
2024-02-08T11:16:44.634Z,57.96
2024-02-08T11:19:12.083Z,57.34
2024-02-08T11:21:39.452Z,57.17
2024-02-08T11:24:06.778Z,56.05
2024-02-08T11:26:34.275Z,55.44
2024-02-08T11:29:01.761Z,56.02
2024-02-08T11:31:29.187Z,55.85
2024-02-08T11:33:56.830Z,55.29
2024-02-08T11:36:24.348Z,55.76
2024-02-08T11:38:51.671Z,55.31
2024-02-08T11:41:18.995Z,56.13
2024-02-08T11:43:46.358Z,55.81
2024-02-08T11:46:13.730Z,54.43
2024-02-08T11:48:41.233Z,54.96
2024-02-08T11:51:08.692Z,55.14
2024-02-08T11:53:36.038Z,55.34
2024-02-08T11:56:03.357Z,55.91
2024-02-08T11:58:30.754Z,56.13
2024-02-08T12:00:58.257Z,55.70
2024-02-08T12:03:25.708Z,53.42
2024-02-08T12:05:53.042Z,54.71
2024-02-08T12:08:21.412Z,53.86
2024-02-08T12:10:49.838Z,54.97
2024-02-08T12:13:17.273Z,57.59
2024-02-08T12:15:44.652Z,57.97
2024-02-08T12:18:12.117Z,60.84
2024-02-08T12:20:39.511Z,59.88
2024-02-08T12:23:06.819Z,61.63
2024-02-08T12:25:34.244Z,60.80
2024-02-08T12:28:01.582Z,61.03
2024-02-08T12:30:28.923Z,60.03
2024-02-08T12:32:56.274Z,59.42
2024-02-08T12:35:23.660Z,60.60
2024-02-08T12:37:50.981Z,60.17
2024-02-08T12:40:18.441Z,60.17
2024-02-08T12:42:45.794Z,61.28
2024-02-08T12:45:13.152Z,60.37
2024-02-08T12:47:40.508Z,60.84
2024-02-08T12:50:14.991Z,59.34
2024-02-08T12:52:49.070Z,59.68
2024-02-08T12:55:16.414Z,59.00
2024-02-08T12:57:43.796Z,58.60
2024-02-08T13:00:11.104Z,57.45
2024-02-08T13:02:38.408Z,58.02
2024-02-08T13:05:06.088Z,57.53
2024-02-08T13:07:36.810Z,58.05
2024-02-08T13:10:06.023Z,57.94
2024-02-08T13:12:33.412Z,58.75
2024-02-08T13:15:00.732Z,56.25
2024-02-08T13:17:28.167Z,57.08
2024-02-08T13:19:55.652Z,56.27
2024-02-08T13:22:23.033Z,59.86
2024-02-08T13:24:50.915Z,61.18
2024-02-08T13:27:18.243Z,63.19
2024-02-08T13:29:45.553Z,62.46
2024-02-08T13:32:12.874Z,62.03
2024-02-08T13:34:40.257Z,60.75
2024-02-08T13:37:07.659Z,60.88
2024-02-08T13:39:34.996Z,60.38
2024-02-08T13:42:02.399Z,60.78
2024-02-08T13:44:29.816Z,59.38
2024-02-08T13:46:57.240Z,62.51
2024-02-08T13:49:24.741Z,61.08
2024-02-08T13:51:52.256Z,59.64
2024-02-08T13:54:19.616Z,60.13
2024-02-08T13:56:46.975Z,58.25
2024-02-08T13:59:14.342Z,57.47
2024-02-08T14:01:41.803Z,56.44
2024-02-08T14:04:09.257Z,57.14
2024-02-08T14:06:36.649Z,55.97
2024-02-08T14:09:03.961Z,56.16
2024-02-08T14:11:31.324Z,56.12
2024-02-08T14:13:58.648Z,54.16
2024-02-08T14:16:25.982Z,54.73
2024-02-08T14:18:53.560Z,53.35
2024-02-08T14:21:21.145Z,53.52
2024-02-08T14:23:48.442Z,54.45
2024-02-08T14:26:15.761Z,54.08
2024-02-08T14:28:43.097Z,53.76
2024-02-08T14:31:10.489Z,53.61
2024-02-08T14:33:38.650Z,53.33
2024-02-08T14:36:05.976Z,53.01
2024-02-08T14:38:33.309Z,52.36
2024-02-08T14:41:00.617Z,53.21
2024-02-08T14:43:27.935Z,52.11
2024-02-08T14:45:55.288Z,52.42
2024-02-08T14:48:22.869Z,51.94
2024-02-08T14:50:50.173Z,51.85
2024-02-08T14:53:17.485Z,51.98
2024-02-08T14:55:44.821Z,52.33
2024-02-08T14:58:12.183Z,52.46
2024-02-08T15:00:39.539Z,51.86
2024-02-08T15:03:06.922Z,52.29
2024-02-08T15:05:34.372Z,52.75
2024-02-08T15:08:01.753Z,52.11
2024-02-08T15:10:29.107Z,52.98
2024-02-08T15:12:56.443Z,53.81
2024-02-08T15:15:23.895Z,53.83
2024-02-08T15:17:51.236Z,53.96
2024-02-08T15:20:18.615Z,55.47
2024-02-08T15:22:46.122Z,55.72
2024-02-08T15:25:14.594Z,55.95
2024-02-08T15:27:41.959Z,55.71
2024-02-08T15:30:09.293Z,55.42
2024-02-08T15:32:36.626Z,55.66
2024-02-08T15:35:04.086Z,55.16
2024-02-08T15:37:31.521Z,55.26
2024-02-08T15:39:58.966Z,54.31
2024-02-08T15:42:26.291Z,54.76
2024-02-08T15:44:54.561Z,54.34
2024-02-08T15:47:22.411Z,53.97
2024-02-08T15:49:49.885Z,53.70
2024-02-08T15:52:17.749Z,53.19
2024-02-08T15:54:45.725Z,53.71
2024-02-08T15:57:13.834Z,53.67
2024-02-08T15:59:41.277Z,53.37
2024-02-08T16:02:08.792Z,52.62
2024-02-08T16:04:36.254Z,53.38
2024-02-08T16:07:03.763Z,53.33
2024-02-08T16:09:31.200Z,53.04
2024-02-08T16:11:58.544Z,53.20
2024-02-08T16:14:25.857Z,52.90
2024-02-08T16:16:53.171Z,52.43
2024-02-08T16:19:20.680Z,52.43
2024-02-08T16:21:48.073Z,52.48
2024-02-08T16:24:15.448Z,52.87
2024-02-08T16:26:42.809Z,52.85
2024-02-08T16:29:10.197Z,52.62
2024-02-08T16:31:37.698Z,52.92
2024-02-08T16:34:05.122Z,52.97
2024-02-08T16:36:32.518Z,53.00
2024-02-08T16:39:01.800Z,53.22
2024-02-08T16:41:29.129Z,53.17
2024-02-08T16:43:56.445Z,53.71
2024-02-08T16:46:24.114Z,53.53
2024-02-08T16:48:51.484Z,53.87
2024-02-08T16:51:18.843Z,53.92
2024-02-08T16:53:46.219Z,53.75
2024-02-08T16:56:13.545Z,53.57
2024-02-08T16:58:40.921Z,53.32
2024-02-08T17:01:08.363Z,54.15
2024-02-08T17:03:35.719Z,53.88
2024-02-08T17:06:03.149Z,53.52
2024-02-08T17:08:30.476Z,53.78
2024-02-08T17:10:57.810Z,53.71
2024-02-08T17:13:46.546Z,54.11
2024-02-08T17:16:33.142Z,54.08
2024-02-08T17:19:19.803Z,54.12
2024-02-08T17:22:05.846Z,53.93
2024-02-08T17:24:52.170Z,53.77
2024-02-08T17:27:37.881Z,53.77
2024-02-08T17:30:23.991Z,53.33
2024-02-08T17:33:09.682Z,53.45
2024-02-08T17:35:58.004Z,53.16
2024-02-08T17:38:44.084Z,53.26
2024-02-08T17:41:30.488Z,52.99
2024-02-08T17:44:16.634Z,53.02
2024-02-08T17:47:02.335Z,52.93
2024-02-08T17:49:48.675Z,53.29
2024-02-08T17:52:34.477Z,53.55
2024-02-08T17:55:20.896Z,54.04
2024-02-08T17:58:06.690Z,54.45
2024-02-08T18:00:52.694Z,54.24
2024-02-08T18:03:38.886Z,53.97
2024-02-08T18:06:25.477Z,54.00
2024-02-08T18:09:11.413Z,53.13
2024-02-08T18:11:59.326Z,53.10
2024-02-08T18:14:45.286Z,53.39
2024-02-08T18:17:31.472Z,53.46
2024-02-08T18:20:17.392Z,53.15
2024-02-08T18:23:04.091Z,53.06
2024-02-08T18:25:49.984Z,52.99
2024-02-08T18:28:36.131Z,52.95
2024-02-08T18:31:21.814Z,52.76
2024-02-08T18:34:08.025Z,52.87
2024-02-08T18:36:54.046Z,53.32
2024-02-08T18:39:40.332Z,53.31
2024-02-08T18:42:26.089Z,53.06
2024-02-08T18:45:12.115Z,52.92
2024-02-08T18:47:57.874Z,53.31
2024-02-08T18:50:44.381Z,53.45
2024-02-08T18:53:30.177Z,53.61
2024-02-08T18:56:16.456Z,53.74
2024-02-08T18:59:04.303Z,54.27
2024-02-08T19:01:57.369Z,53.52
2024-02-08T19:04:46.858Z,53.75
2024-02-08T19:07:33.139Z,54.47
2024-02-08T19:10:19.021Z,53.75
2024-02-08T19:13:05.087Z,53.97
2024-02-08T19:15:50.959Z,53.36
2024-02-08T19:18:37.102Z,54.27
2024-02-08T19:21:22.893Z,54.42
2024-02-08T19:24:09.113Z,54.83
2024-02-08T19:26:54.936Z,55.16
2024-02-08T19:29:40.811Z,55.10
2024-02-08T19:32:26.638Z,55.58
2024-02-08T19:35:12.946Z,55.46
2024-02-08T19:37:59.015Z,55.50
2024-02-08T19:40:45.358Z,56.30
2024-02-08T19:43:31.320Z,56.77
2024-02-08T19:46:17.306Z,56.73
2024-02-08T19:49:03.191Z,56.70
2024-02-08T19:51:49.255Z,56.89
2024-02-08T19:54:35.045Z,57.31
2024-02-08T19:57:21.427Z,57.76
2024-02-08T20:00:07.397Z,57.32
2024-02-08T20:02:54.085Z,57.30
2024-02-08T20:05:40.742Z,56.95
2024-02-08T20:08:27.032Z,57.10
2024-02-08T20:11:12.832Z,56.28
2024-02-08T20:13:58.794Z,56.33
2024-02-08T20:16:44.712Z,57.98
2024-02-08T20:19:31.103Z,57.29
2024-02-08T20:22:16.847Z,57.86
2024-02-08T20:25:03.131Z,58.29
2024-02-08T20:27:48.932Z,57.52
2024-02-08T20:30:34.873Z,57.38
2024-02-08T20:33:20.878Z,56.89
2024-02-08T20:36:07.120Z,57.26
2024-02-08T20:38:52.816Z,56.90
2024-02-08T20:41:39.230Z,56.99
2024-02-08T20:44:24.914Z,56.19
2024-02-08T20:47:11.167Z,56.36
2024-02-08T20:49:57.755Z,57.51
2024-02-08T20:52:43.776Z,58.28
2024-02-08T20:55:29.582Z,59.23
2024-02-08T20:58:16.198Z,59.30
2024-02-08T21:01:02.234Z,58.81
2024-02-08T21:03:50.212Z,58.92
2024-02-08T21:06:35.981Z,58.77
2024-02-08T21:09:23.885Z,58.81
2024-02-08T21:12:09.581Z,57.78
2024-02-08T21:14:55.737Z,58.40
2024-02-08T21:17:41.539Z,57.88
2024-02-08T21:20:27.796Z,57.40
2024-02-08T21:23:13.524Z,57.18
2024-02-08T21:25:59.894Z,56.48
2024-02-08T21:28:45.812Z,56.43
2024-02-08T21:31:31.970Z,56.48
2024-02-08T21:34:19.885Z,56.77
2024-02-08T21:37:06.213Z,55.86
2024-02-08T21:39:51.837Z,55.89
2024-02-08T21:42:38.080Z,55.47
2024-02-08T21:45:23.781Z,55.63
2024-02-08T21:48:10.082Z,55.88
2024-02-08T21:50:55.949Z,55.48
2024-02-08T21:53:42.188Z,55.60
2024-02-08T21:56:27.930Z,55.85
2024-02-08T21:59:14.176Z,56.14
2024-02-08T22:01:59.892Z,56.08
2024-02-08T22:04:46.131Z,55.79
2024-02-08T22:07:31.948Z,55.81
2024-02-08T22:10:18.070Z,56.08
2024-02-08T22:13:05.148Z,55.62
2024-02-08T22:15:51.536Z,55.95
2024-02-08T22:18:37.206Z,55.71
2024-02-08T22:21:23.331Z,55.97
2024-02-08T22:24:10.403Z,55.50
2024-02-08T22:26:56.926Z,55.34
2024-02-08T22:29:43.095Z,55.43
2024-02-08T22:32:28.823Z,55.85
2024-02-08T22:35:17.409Z,56.27
2024-02-08T22:38:03.410Z,56.66
2024-02-08T22:40:49.474Z,56.12
2024-02-08T22:43:35.290Z,57.25
2024-02-08T22:46:21.718Z,56.97
2024-02-08T22:49:09.328Z,56.97
2024-02-08T22:51:55.614Z,57.00
2024-02-08T22:54:41.494Z,57.44
2024-02-08T22:57:27.649Z,56.78
2024-02-08T23:00:13.404Z,56.80
2024-02-08T23:02:59.529Z,56.90
2024-02-08T23:05:45.234Z,55.95
2024-02-08T23:08:31.468Z,56.32
2024-02-08T23:11:16.924Z,56.10
2024-02-08T23:14:03.064Z,56.24
2024-02-08T23:16:49.397Z,56.78
2024-02-08T23:19:35.101Z,56.99
2024-02-08T23:22:22.077Z,57.32
2024-02-08T23:25:08.706Z,57.25
2024-02-08T23:27:54.606Z,57.25
2024-02-08T23:30:40.340Z,57.64
2024-02-08T23:33:26.613Z,57.63
2024-02-08T23:36:12.500Z,58.24
2024-02-08T23:38:58.806Z,57.47
2024-02-08T23:41:44.426Z,58.61
2024-02-08T23:44:30.697Z,58.26
2024-02-08T23:47:16.503Z,59.27
2024-02-08T23:50:02.667Z,59.14
2024-02-08T23:52:48.483Z,59.45
2024-02-08T23:55:34.763Z,60.08
2024-02-08T23:58:20.525Z,60.19
